createdAt,value
2018-08-08T00:00:28.193Z,49.00
2018-08-08T00:02:57.735Z,49.00
2018-08-08T00:05:32.571Z,49.20
2018-08-08T00:08:02.437Z,49.40
2018-08-08T00:10:31.951Z,49.60
2018-08-08T00:13:04.473Z,49.90
2018-08-08T00:15:38.738Z,50.00
2018-08-08T00:18:08.292Z,50.20
2018-08-08T00:20:44.924Z,50.40
2018-08-08T00:23:20.650Z,50.60
2018-08-08T00:25:50.059Z,50.90
2018-08-08T00:31:00.635Z,51.00
2018-08-08T00:33:41.884Z,51.00
2018-08-08T00:36:18.403Z,51.80
2018-08-08T00:38:52.929Z,51.30
2018-08-08T00:41:28.532Z,51.00
2018-08-08T00:43:58.573Z,51.50
2018-08-08T00:46:32.335Z,51.60
2018-08-08T00:49:02.137Z,51.60
2018-08-08T00:51:41.288Z,51.60
2018-08-08T00:54:16.533Z,51.40
2018-08-08T00:56:46.170Z,51.30
2018-08-08T00:59:21.312Z,51.00
2018-08-08T01:01:56.712Z,50.90
2018-08-08T01:04:32.688Z,51.30
2018-08-08T01:07:08.744Z,51.30
2018-08-08T01:09:38.329Z,50.70
2018-08-08T01:12:13.513Z,49.80
2018-08-08T01:14:51.840Z,49.30
2018-08-08T01:17:21.913Z,48.40
2018-08-08T01:19:51.466Z,48.10
2018-08-08T01:22:39.082Z,47.40
2018-08-08T01:25:10.745Z,46.80
2018-08-08T01:27:45.878Z,46.10
2018-08-08T01:30:17.891Z,45.90
2018-08-08T01:33:02.037Z,45.80
2018-08-08T01:35:38.757Z,45.70
2018-08-08T01:38:17.330Z,45.60
2018-08-08T01:41:35.401Z,45.10
2018-08-08T01:44:17.928Z,45.70
2018-08-08T01:46:48.840Z,45.90
2018-08-08T01:49:18.392Z,45.60
2018-08-08T01:51:55.263Z,45.90
2018-08-08T01:54:30.338Z,45.70
2018-08-08T01:56:59.787Z,46.40
2018-08-08T01:59:29.291Z,46.40
2018-08-08T02:01:59.155Z,47.90
2018-08-08T02:04:41.986Z,46.20
2018-08-08T02:07:17.633Z,46.60
2018-08-08T02:09:48.482Z,47.60
2018-08-08T02:12:23.330Z,48.70
2018-08-08T02:15:00.127Z,49.70
2018-08-08T02:17:34.141Z,48.50
2018-08-08T02:20:14.293Z,47.20
2018-08-08T02:22:56.337Z,47.50
2018-08-08T02:25:31.386Z,47.60
2018-08-08T02:28:07.395Z,47.70
2018-08-08T02:30:38.326Z,47.80
2018-08-08T02:33:09.047Z,47.70
2018-08-08T02:35:39.404Z,47.80
2018-08-08T02:38:09.278Z,47.80
2018-08-08T02:40:52.645Z,48.10
2018-08-08T02:43:31.365Z,49.60
2018-08-08T02:46:00.896Z,50.60
2018-08-08T02:48:30.659Z,52.60
2018-08-08T02:51:00.841Z,56.30
2018-08-08T02:53:30.539Z,57.20
2018-08-08T02:56:00.018Z,57.70
2018-08-08T02:58:30.059Z,65.00
2018-08-08T03:00:59.567Z,69.80
2018-08-08T03:03:38.493Z,69.80
2018-08-08T03:06:08.304Z,73.40
2018-08-08T03:08:42.378Z,73.90
2018-08-08T03:11:19.264Z,79.10
2018-08-08T03:13:49.325Z,77.10
2018-08-08T03:16:33.808Z,76.00
2018-08-08T03:19:09.845Z,77.90
2018-08-08T03:21:44.525Z,80.80
2018-08-08T03:24:14.456Z,79.30
2018-08-08T03:26:44.038Z,84.50
2018-08-08T03:29:22.705Z,77.80
2018-08-08T03:31:52.713Z,76.70
2018-08-08T03:34:26.981Z,76.20
2018-08-08T03:37:03.405Z,76.20
2018-08-08T03:39:38.444Z,76.90
2018-08-08T03:42:08.861Z,72.80
2018-08-08T03:44:43.883Z,72.10
2018-08-08T03:47:20.324Z,70.20
2018-08-08T03:49:50.116Z,69.30
2018-08-08T03:52:19.584Z,69.30
2018-08-08T03:54:49.065Z,70.20
2018-08-08T03:57:18.972Z,71.60
2018-08-08T03:59:48.505Z,72.30
2018-08-08T04:02:27.737Z,73.40
2018-08-08T04:05:02.063Z,73.40
2018-08-08T04:07:38.122Z,74.30
2018-08-08T04:10:09.088Z,76.10
2018-08-08T04:12:41.282Z,79.00
2018-08-08T04:15:13.127Z,81.40
2018-08-08T04:17:43.065Z,80.30
2018-08-08T04:20:28.660Z,84.50
2018-08-08T04:22:58.445Z,85.70
2018-08-08T04:25:41.002Z,87.20
2018-08-08T04:28:15.771Z,90.10
2018-08-08T04:30:56.536Z,90.30
2018-08-08T04:33:40.113Z,90.10
2018-08-08T04:36:16.916Z,91.00
2018-08-08T04:38:46.739Z,91.40
2018-08-08T04:41:23.435Z,91.50
2018-08-08T04:44:08.050Z,92.40
2018-08-08T04:46:37.892Z,92.10
2018-08-08T04:49:18.434Z,93.10
2018-08-08T04:51:48.215Z,93.40
2018-08-08T04:54:29.309Z,93.40
2018-08-08T04:56:59.205Z,93.10
2018-08-08T04:59:28.673Z,93.60
2018-08-08T05:02:06.728Z,93.70
2018-08-08T05:04:36.462Z,94.00
2018-08-08T05:07:05.993Z,94.60
2018-08-08T05:09:35.636Z,94.80
2018-08-08T05:12:14.621Z,95.00
2018-08-08T05:14:44.132Z,95.00
2018-08-08T05:17:18.802Z,94.80
2018-08-08T05:19:48.412Z,95.70
2018-08-08T05:22:30.039Z,95.00
2018-08-08T05:24:59.536Z,94.80
2018-08-08T05:27:39.909Z,94.70
2018-08-08T05:30:17.705Z,94.80
2018-08-08T05:32:47.573Z,95.10
2018-08-08T05:35:18.602Z,95.10
2018-08-08T05:37:48.171Z,95.10
2018-08-08T05:40:25.372Z,94.90
2018-08-08T05:42:55.506Z,94.40
2018-08-08T05:45:34.023Z,95.30
2018-08-08T05:48:03.553Z,95.60
2018-08-08T05:50:40.485Z,95.10
2018-08-08T05:53:15.561Z,95.30
2018-08-08T05:55:45.360Z,94.80
2018-08-08T05:58:14.789Z,95.10
2018-08-08T06:00:57.589Z,96.00
2018-08-08T06:03:31.897Z,95.90
2018-08-08T06:06:01.514Z,96.00
2018-08-08T06:08:42.181Z,96.40
2018-08-08T06:11:20.124Z,95.60
2018-08-08T06:13:49.703Z,95.80
2018-08-08T06:16:24.796Z,95.70
2018-08-08T06:18:54.490Z,95.90
2018-08-08T06:21:24.336Z,95.60
2018-08-08T06:23:53.869Z,94.90
2018-08-08T06:26:23.713Z,95.40
2018-08-08T06:29:05.517Z,94.90
2018-08-08T06:31:35.005Z,95.30
2018-08-08T06:36:54.486Z,95.90
2018-08-08T06:39:37.546Z,95.50
2018-08-08T06:42:07.266Z,95.20
2018-08-08T06:44:44.238Z,94.90
2018-08-08T06:47:28.030Z,93.70
2018-08-08T06:49:58.048Z,93.70
2018-08-08T06:52:40.027Z,93.10
2018-08-08T06:55:11.737Z,92.80
2018-08-08T06:57:41.545Z,92.90
2018-08-08T07:00:15.352Z,92.30
2018-08-08T07:02:56.673Z,92.40
2018-08-08T07:05:26.392Z,92.20
2018-08-08T07:07:57.114Z,92.80
2018-08-08T07:10:26.746Z,93.40
2018-08-08T07:13:05.305Z,92.70
2018-08-08T07:15:35.191Z,91.80
2018-08-08T07:18:06.260Z,91.80
2018-08-08T07:20:35.869Z,93.30
2018-08-08T07:23:05.786Z,92.90
2018-08-08T07:25:35.513Z,92.30
2018-08-08T07:28:05.062Z,91.90
2018-08-08T07:30:37.885Z,91.60
2018-08-08T07:33:20.636Z,90.90
2018-08-08T07:35:50.575Z,90.60
2018-08-08T07:38:40.354Z,90.30
2018-08-08T07:41:18.928Z,87.80
2018-08-08T07:43:53.522Z,88.50
2018-08-08T07:46:23.402Z,87.30
2018-08-08T07:48:52.977Z,87.70
2018-08-08T07:51:22.839Z,85.20
2018-08-08T07:54:04.176Z,86.30
2018-08-08T07:56:33.979Z,86.50
2018-08-08T07:59:03.878Z,85.50
2018-08-08T08:01:46.345Z,83.70
2018-08-08T08:05:35.492Z,83.30
2018-08-08T08:08:05.017Z,83.20
2018-08-08T08:10:43.817Z,83.70
2018-08-08T08:13:18.716Z,84.00
2018-08-08T08:15:48.450Z,84.50
2018-08-08T08:18:24.609Z,84.10
2018-08-08T08:20:54.101Z,83.50
2018-08-08T08:23:34.257Z,84.20
2018-08-08T08:26:11.461Z,83.50
2018-08-08T08:28:40.925Z,83.10
2018-08-08T08:31:10.324Z,81.90
2018-08-08T08:33:40.049Z,82.80
2018-08-08T08:36:18.884Z,80.20
2018-08-08T08:38:48.678Z,81.40
2018-08-08T08:41:23.235Z,83.00
2018-08-08T08:43:53.093Z,82.20
2018-08-08T08:46:29.007Z,82.50
2018-08-08T08:48:58.559Z,82.30
2018-08-08T08:51:28.178Z,81.60
2018-08-08T08:53:57.691Z,83.20
2018-08-08T08:56:35.899Z,82.20
2018-08-08T08:59:11.520Z,82.10
2018-08-08T09:01:46.654Z,82.40
2018-08-08T09:04:16.166Z,81.80
2018-08-08T09:06:45.872Z,81.60
2018-08-08T09:09:15.797Z,81.40
2018-08-08T09:11:54.788Z,80.60
2018-08-08T09:14:24.638Z,81.10
2018-08-08T09:16:54.498Z,78.80
2018-08-08T09:19:31.365Z,77.10
2018-08-08T09:22:01.093Z,77.70
2018-08-08T09:24:30.493Z,75.80
2018-08-08T09:27:08.774Z,76.00
2018-08-08T09:29:52.510Z,75.60
2018-08-08T09:32:27.029Z,76.50
2018-08-08T09:35:02.552Z,76.10
2018-08-08T09:37:33.554Z,76.10
2018-08-08T09:40:08.264Z,74.40
2018-08-08T09:42:37.749Z,74.80
2018-08-08T09:45:08.088Z,74.50
2018-08-08T09:47:49.720Z,73.90
2018-08-08T09:50:19.442Z,73.50
2018-08-08T09:52:49.177Z,74.40
2018-08-08T09:55:30.699Z,74.50
2018-08-08T09:58:06.114Z,73.40
2018-08-08T10:02:00.973Z,74.10
2018-08-08T10:04:39.682Z,74.10
2018-08-08T10:07:23.236Z,72.50
2018-08-08T10:09:53.381Z,72.50
2018-08-08T10:12:33.771Z,73.00
2018-08-08T10:15:18.505Z,72.30
2018-08-08T10:17:57.066Z,72.80
2018-08-08T10:20:27.174Z,72.00
2018-08-08T10:23:11.202Z,71.20
2018-08-08T10:25:41.761Z,72.50
2018-08-08T10:28:16.868Z,72.20
2018-08-08T10:30:46.450Z,71.50
2018-08-08T10:33:23.285Z,71.10
2018-08-08T10:35:55.649Z,69.80
2018-08-08T10:38:25.133Z,70.20
2018-08-08T10:40:54.733Z,69.50
2018-08-08T10:43:24.912Z,69.50
2018-08-08T10:45:54.472Z,70.50
2018-08-08T10:48:24.123Z,68.80
2018-08-08T10:51:00.971Z,70.50
2018-08-08T10:53:41.804Z,70.00
2018-08-08T10:56:12.218Z,70.10
2018-08-08T10:58:42.107Z,71.10
2018-08-08T11:01:17.342Z,71.60
2018-08-08T11:03:53.170Z,71.60
2018-08-08T11:06:32.558Z,70.10
2018-08-08T11:09:02.555Z,70.20
2018-08-08T11:11:41.039Z,70.20
2018-08-08T11:14:20.157Z,67.40
2018-08-08T11:16:55.178Z,63.10
2018-08-08T11:19:24.912Z,62.80
2018-08-08T11:21:54.417Z,61.50
2018-08-08T11:24:23.879Z,62.00
2018-08-08T11:26:53.485Z,61.30
2018-08-08T11:29:23.235Z,63.30
2018-08-08T11:31:57.897Z,58.80
2018-08-08T11:34:33.294Z,59.10
2018-08-08T11:37:03.114Z,58.50
2018-08-08T11:39:38.861Z,57.40
2018-08-08T11:42:09.537Z,55.90
2018-08-08T11:44:40.993Z,55.80
2018-08-08T11:47:15.894Z,54.00
2018-08-08T11:49:45.490Z,52.60
2018-08-08T11:52:22.295Z,53.70
2018-08-08T11:54:56.712Z,53.80
2018-08-08T11:57:26.451Z,52.90
2018-08-08T11:59:56.108Z,53.00
2018-08-08T12:02:29.188Z,53.70
2018-08-08T12:05:04.202Z,52.70
2018-08-08T12:07:39.524Z,52.80
2018-08-08T12:10:09.774Z,53.70
2018-08-08T12:12:44.931Z,53.40
2018-08-08T12:15:14.933Z,54.20
2018-08-08T12:20:31.462Z,55.60
2018-08-08T12:23:07.140Z,57.30
2018-08-08T12:25:46.930Z,58.30
2018-08-08T12:28:16.731Z,58.60
2018-08-08T12:30:54.272Z,60.90
2018-08-08T12:33:24.000Z,61.60
2018-08-08T12:35:53.770Z,61.50
2018-08-08T12:38:30.771Z,62.00
2018-08-08T12:41:16.056Z,62.30
2018-08-08T12:43:50.022Z,61.80
2018-08-08T12:46:25.864Z,60.40
2018-08-08T12:49:02.264Z,60.10
2018-08-08T12:51:37.334Z,60.70
2018-08-08T12:54:06.844Z,61.50
2018-08-08T12:56:36.435Z,62.50
2018-08-08T12:59:25.406Z,61.50
2018-08-08T13:01:55.216Z,60.80
2018-08-08T13:04:25.223Z,59.60
2018-08-08T13:06:54.961Z,59.40
2018-08-08T13:09:24.837Z,58.90
2018-08-08T13:12:00.009Z,59.90
2018-08-08T13:14:36.880Z,60.40
2018-08-08T13:17:11.198Z,60.70
2018-08-08T13:19:47.947Z,60.60
2018-08-08T13:22:18.355Z,61.00
2018-08-08T13:24:59.296Z,59.10
2018-08-08T13:27:29.140Z,60.00
2018-08-08T13:29:58.748Z,60.50
2018-08-08T13:32:33.521Z,58.60
2018-08-08T13:35:03.762Z,59.30
2018-08-08T13:37:33.368Z,60.00
2018-08-08T13:40:02.953Z,57.30
2018-08-08T13:42:32.466Z,59.00
2018-08-08T13:45:02.128Z,59.20
2018-08-08T13:47:47.356Z,58.60
2018-08-08T13:50:17.171Z,59.60
2018-08-08T17:04:10.576Z,60.00
2018-08-08T19:33:07.277Z,63.90
2018-08-08T19:35:37.306Z,63.90
2018-08-08T19:48:21.203Z,63.40
2018-08-08T19:50:54.960Z,63.90
2018-08-08T19:53:26.357Z,63.20
2018-08-08T19:55:57.014Z,63.30
2018-08-08T19:58:26.648Z,63.80
2018-08-08T20:00:56.162Z,63.70
2018-08-08T20:03:26.139Z,63.90
2018-08-08T20:05:56.097Z,64.00
2018-08-08T20:08:27.400Z,64.10
2018-08-08T20:11:04.230Z,63.70
2018-08-08T20:13:33.942Z,64.70
2018-08-08T20:16:03.442Z,65.20
2018-08-08T20:18:34.396Z,65.20
2018-08-08T20:21:04.101Z,64.80
2018-08-08T20:23:33.629Z,64.50
2018-08-08T20:26:03.761Z,64.80
2018-08-08T20:28:33.275Z,64.70
2018-08-08T20:31:03.070Z,64.70
2018-08-08T20:33:40.146Z,65.50
2018-08-08T20:36:09.714Z,65.30
2018-08-08T20:38:39.245Z,65.30
2018-08-08T20:41:08.943Z,64.90
2018-08-08T20:43:38.476Z,65.50
2018-08-08T20:46:08.363Z,66.10
2018-08-08T20:48:37.772Z,66.80
2018-08-08T20:51:20.882Z,66.00
2018-08-08T20:53:56.604Z,67.00
2018-08-08T20:56:26.515Z,66.00
2018-08-08T20:59:03.654Z,66.00
2018-08-08T21:01:48.923Z,66.90
2018-08-08T21:04:18.562Z,66.60
2018-08-08T21:06:48.537Z,67.10
2018-08-08T21:09:18.005Z,67.20
2018-08-08T21:11:47.453Z,65.70
2018-08-08T21:14:17.419Z,67.50
2018-08-08T21:17:00.375Z,67.10
2018-08-08T21:19:32.081Z,66.10
2018-08-08T21:22:01.807Z,67.10
2018-08-08T21:24:31.344Z,67.10
2018-08-08T21:27:01.383Z,66.40
2018-08-08T21:29:30.879Z,66.80
2018-08-08T21:32:08.909Z,66.60
2018-08-08T21:34:38.851Z,66.20
2018-08-08T21:37:13.888Z,66.90
2018-08-08T21:39:43.302Z,66.90
2018-08-08T21:42:32.234Z,67.80
2018-08-08T21:45:10.969Z,67.20
2018-08-08T21:47:40.814Z,67.40
2018-08-08T21:50:10.224Z,67.20
2018-08-08T21:52:39.670Z,67.40
2018-08-08T21:55:20.119Z,68.20
2018-08-08T21:58:00.435Z,68.00
2018-08-08T22:00:40.885Z,67.60
2018-08-08T22:03:21.024Z,66.80
2018-08-08T22:06:01.471Z,67.80
2018-08-08T22:08:41.714Z,68.00
2018-08-08T22:11:22.207Z,67.20
2018-08-08T22:14:03.453Z,67.20
2018-08-08T22:16:44.214Z,68.10
2018-08-08T22:19:29.179Z,67.30
2018-08-08T22:22:00.314Z,68.30
2018-08-08T22:24:29.792Z,68.20
2018-08-08T22:26:59.355Z,68.60
2018-08-08T22:29:29.293Z,69.00
2018-08-08T22:32:12.728Z,68.80
2018-08-08T22:34:42.660Z,69.00
2018-08-08T22:37:12.187Z,68.60
2018-08-08T22:39:41.581Z,69.00
2018-08-08T22:42:11.400Z,69.20
2018-08-08T22:44:40.908Z,69.00
2018-08-08T22:47:10.318Z,69.20
2018-08-08T22:49:40.165Z,69.50
2018-08-08T22:52:09.571Z,70.20
2018-08-08T22:54:38.929Z,70.40
2018-08-08T22:57:08.750Z,70.60
2018-08-08T22:59:38.173Z,70.20
2018-08-08T23:02:07.669Z,70.40
2018-08-08T23:04:37.441Z,70.00
2018-08-08T23:07:15.885Z,70.80
2018-08-08T23:09:45.871Z,70.90
2018-08-08T23:12:20.774Z,71.20
2018-08-08T23:14:55.706Z,70.90
2018-08-08T23:17:31.557Z,70.70
2018-08-08T23:20:06.867Z,70.70
2018-08-08T23:22:47.393Z,69.90
2018-08-08T23:25:16.781Z,70.00
2018-08-08T23:27:46.882Z,70.50
2018-08-08T23:30:23.198Z,70.80
2018-08-08T23:32:58.552Z,70.60
2018-08-08T23:35:28.015Z,71.20
2018-08-08T23:38:04.821Z,71.20
2018-08-08T23:40:34.728Z,71.80
2018-08-08T23:43:04.263Z,71.80
2018-08-08T23:45:43.569Z,72.20
2018-08-08T23:48:15.562Z,72.30
2018-08-08T23:50:52.492Z,72.00
2018-08-08T23:53:37.505Z,72.10
2018-08-08T23:56:07.847Z,72.70
2018-08-08T23:58:43.297Z,71.60
